sensor_id;sensor_type;location;lat;lon;timestamp;P1;durP1;ratioP1;P2;durP2;ratioP2
15230;SDS011;32569;51.762;8.564;2023-03-08T00:00:56;35.10;;;21.80;;
15230;SDS011;32569;51.762;8.564;2023-03-08T00:03:23;27.77;;;20.47;;
15230;SDS011;32569;51.762;8.564;2023-03-08T00:05:50;31.23;;;19.77;;
15230;SDS011;32569;51.762;8.564;2023-03-08T00:08:17;32.60;;;21.53;;
15230;SDS011;32569;51.762;8.564;2023-03-08T00:10:52;31.77;;;21.23;;
15230;SDS011;32569;51.762;8.564;2023-03-08T00:13:19;30.60;;;21.10;;
15230;SDS011;32569;51.762;8.564;2023-03-08T00:15:45;31.17;;;20.73;;
15230;SDS011;32569;51.762;8.564;2023-03-08T00:18:12;31.17;;;21.47;;
15230;SDS011;32569;51.762;8.564;2023-03-08T00:20:38;33.97;;;20.57;;
15230;SDS011;32569;51.762;8.564;2023-03-08T00:23:06;27.73;;;20.23;;
15230;SDS011;32569;51.762;8.564;2023-03-08T00:25:36;31.00;;;20.17;;
15230;SDS011;32569;51.762;8.564;2023-03-08T00:28:04;30.30;;;19.13;;
15230;SDS011;32569;51.762;8.564;2023-03-08T00:30:30;29.03;;;20.03;;
15230;SDS011;32569;51.762;8.564;2023-03-08T00:32:57;30.13;;;19.90;;
15230;SDS011;32569;51.762;8.564;2023-03-08T00:35:24;30.50;;;18.60;;
15230;SDS011;32569;51.762;8.564;2023-03-08T00:37:50;29.90;;;19.40;;
15230;SDS011;32569;51.762;8.564;2023-03-08T00:40:17;30.37;;;18.47;;
15230;SDS011;32569;51.762;8.564;2023-03-08T00:42:43;28.90;;;18.07;;
15230;SDS011;32569;51.762;8.564;2023-03-08T00:45:11;26.67;;;18.63;;
15230;SDS011;32569;51.762;8.564;2023-03-08T00:47:38;25.60;;;18.93;;
15230;SDS011;32569;51.762;8.564;2023-03-08T00:50:05;27.00;;;19.00;;
15230;SDS011;32569;51.762;8.564;2023-03-08T00:52:33;24.53;;;17.77;;
15230;SDS011;32569;51.762;8.564;2023-03-08T00:55:02;29.10;;;18.13;;
15230;SDS011;32569;51.762;8.564;2023-03-08T00:57:29;28.40;;;19.10;;
15230;SDS011;32569;51.762;8.564;2023-03-08T00:59:57;27.90;;;18.23;;
15230;SDS011;32569;51.762;8.564;2023-03-08T01:02:25;27.00;;;18.13;;
15230;SDS011;32569;51.762;8.564;2023-03-08T01:04:51;27.40;;;18.77;;
15230;SDS011;32569;51.762;8.564;2023-03-08T01:07:18;25.40;;;17.23;;
15230;SDS011;32569;51.762;8.564;2023-03-08T01:09:47;28.57;;;18.07;;
15230;SDS011;32569;51.762;8.564;2023-03-08T01:12:17;27.83;;;18.27;;
15230;SDS011;32569;51.762;8.564;2023-03-08T01:14:46;25.67;;;16.87;;
15230;SDS011;32569;51.762;8.564;2023-03-08T01:17:13;27.67;;;17.73;;
15230;SDS011;32569;51.762;8.564;2023-03-08T01:19:41;29.43;;;18.37;;
15230;SDS011;32569;51.762;8.564;2023-03-08T01:22:07;27.57;;;18.43;;
15230;SDS011;32569;51.762;8.564;2023-03-08T01:24:34;25.13;;;17.97;;
15230;SDS011;32569;51.762;8.564;2023-03-08T01:27:00;28.67;;;18.37;;
15230;SDS011;32569;51.762;8.564;2023-03-08T01:29:27;25.50;;;17.80;;
15230;SDS011;32569;51.762;8.564;2023-03-08T01:31:54;31.60;;;19.50;;
15230;SDS011;32569;51.762;8.564;2023-03-08T01:34:20;28.97;;;19.57;;
15230;SDS011;32569;51.762;8.564;2023-03-08T01:36:48;29.80;;;19.33;;
15230;SDS011;32569;51.762;8.564;2023-03-08T01:39:21;27.03;;;18.47;;
15230;SDS011;32569;51.762;8.564;2023-03-08T01:41:48;26.63;;;17.30;;
15230;SDS011;32569;51.762;8.564;2023-03-08T01:44:15;26.93;;;18.13;;
15230;SDS011;32569;51.762;8.564;2023-03-08T01:46:43;29.93;;;17.63;;
15230;SDS011;32569;51.762;8.564;2023-03-08T01:49:15;23.77;;;16.87;;
15230;SDS011;32569;51.762;8.564;2023-03-08T01:51:45;26.33;;;17.93;;
15230;SDS011;32569;51.762;8.564;2023-03-08T01:54:16;27.73;;;18.50;;
15230;SDS011;32569;51.762;8.564;2023-03-08T01:56:46;25.83;;;18.10;;
15230;SDS011;32569;51.762;8.564;2023-03-08T01:59:15;25.47;;;19.00;;
15230;SDS011;32569;51.762;8.564;2023-03-08T02:01:44;25.73;;;18.23;;
15230;SDS011;32569;51.762;8.564;2023-03-08T02:04:11;26.87;;;17.20;;
15230;SDS011;32569;51.762;8.564;2023-03-08T02:06:37;24.70;;;16.83;;
15230;SDS011;32569;51.762;8.564;2023-03-08T02:09:04;23.13;;;16.10;;
15230;SDS011;32569;51.762;8.564;2023-03-08T02:11:33;27.23;;;17.70;;
15230;SDS011;32569;51.762;8.564;2023-03-08T02:14:01;26.13;;;17.17;;
15230;SDS011;32569;51.762;8.564;2023-03-08T02:16:28;26.47;;;17.27;;
15230;SDS011;32569;51.762;8.564;2023-03-08T02:19:02;25.77;;;17.03;;
15230;SDS011;32569;51.762;8.564;2023-03-08T02:21:30;27.03;;;16.80;;
15230;SDS011;32569;51.762;8.564;2023-03-08T02:24:03;25.27;;;16.70;;
15230;SDS011;32569;51.762;8.564;2023-03-08T02:26:31;30.93;;;19.10;;
15230;SDS011;32569;51.762;8.564;2023-03-08T02:28:59;26.67;;;17.10;;
15230;SDS011;32569;51.762;8.564;2023-03-08T02:31:26;30.13;;;18.60;;
15230;SDS011;32569;51.762;8.564;2023-03-08T02:33:56;24.93;;;17.33;;
15230;SDS011;32569;51.762;8.564;2023-03-08T02:36:22;33.23;;;18.43;;
15230;SDS011;32569;51.762;8.564;2023-03-08T02:38:49;29.27;;;17.83;;
15230;SDS011;32569;51.762;8.564;2023-03-08T02:41:17;28.33;;;18.40;;
15230;SDS011;32569;51.762;8.564;2023-03-08T02:43:44;31.87;;;19.37;;
15230;SDS011;32569;51.762;8.564;2023-03-08T02:46:11;29.17;;;18.33;;
15230;SDS011;32569;51.762;8.564;2023-03-08T02:48:38;27.13;;;18.33;;
15230;SDS011;32569;51.762;8.564;2023-03-08T02:51:05;32.20;;;18.40;;
15230;SDS011;32569;51.762;8.564;2023-03-08T02:53:32;30.83;;;19.33;;
15230;SDS011;32569;51.762;8.564;2023-03-08T02:55:58;32.27;;;18.87;;
15230;SDS011;32569;51.762;8.564;2023-03-08T02:58:39;29.97;;;19.27;;
15230;SDS011;32569;51.762;8.564;2023-03-08T03:01:09;29.23;;;19.80;;
15230;SDS011;32569;51.762;8.564;2023-03-08T03:03:36;27.37;;;20.07;;
15230;SDS011;32569;51.762;8.564;2023-03-08T03:06:03;31.73;;;20.33;;
15230;SDS011;32569;51.762;8.564;2023-03-08T03:08:33;31.13;;;19.70;;
15230;SDS011;32569;51.762;8.564;2023-03-08T03:10:59;29.73;;;19.27;;
15230;SDS011;32569;51.762;8.564;2023-03-08T03:13:26;31.53;;;19.43;;
15230;SDS011;32569;51.762;8.564;2023-03-08T03:15:54;30.60;;;20.13;;
15230;SDS011;32569;51.762;8.564;2023-03-08T03:18:21;28.70;;;18.67;;
15230;SDS011;32569;51.762;8.564;2023-03-08T03:20:48;29.00;;;18.97;;
15230;SDS011;32569;51.762;8.564;2023-03-08T03:23:14;29.57;;;19.20;;
15230;SDS011;32569;51.762;8.564;2023-03-08T03:25:46;31.70;;;18.53;;
15230;SDS011;32569;51.762;8.564;2023-03-08T03:28:16;27.53;;;17.90;;
15230;SDS011;32569;51.762;8.564;2023-03-08T03:30:42;27.70;;;18.83;;
15230;SDS011;32569;51.762;8.564;2023-03-08T03:33:10;28.43;;;18.17;;
15230;SDS011;32569;51.762;8.564;2023-03-08T03:35:37;27.63;;;18.03;;
15230;SDS011;32569;51.762;8.564;2023-03-08T03:38:04;31.70;;;18.03;;
15230;SDS011;32569;51.762;8.564;2023-03-08T03:40:30;26.27;;;18.93;;
15230;SDS011;32569;51.762;8.564;2023-03-08T03:42:57;27.43;;;18.07;;
15230;SDS011;32569;51.762;8.564;2023-03-08T03:45:23;27.27;;;18.93;;
15230;SDS011;32569;51.762;8.564;2023-03-08T03:47:50;27.50;;;18.57;;
15230;SDS011;32569;51.762;8.564;2023-03-08T03:50:18;27.10;;;18.13;;
15230;SDS011;32569;51.762;8.564;2023-03-08T03:52:44;31.17;;;19.53;;
15230;SDS011;32569;51.762;8.564;2023-03-08T03:55:11;26.80;;;17.30;;
15230;SDS011;32569;51.762;8.564;2023-03-08T03:57:38;29.50;;;18.43;;
15230;SDS011;32569;51.762;8.564;2023-03-08T04:00:05;25.43;;;17.53;;
15230;SDS011;32569;51.762;8.564;2023-03-08T04:02:32;29.43;;;19.47;;
15230;SDS011;32569;51.762;8.564;2023-03-08T04:04:59;27.13;;;18.20;;
15230;SDS011;32569;51.762;8.564;2023-03-08T04:07:31;27.43;;;17.60;;
15230;SDS011;32569;51.762;8.564;2023-03-08T04:09:58;29.60;;;18.67;;
15230;SDS011;32569;51.762;8.564;2023-03-08T04:12:25;30.67;;;18.27;;
15230;SDS011;32569;51.762;8.564;2023-03-08T04:14:51;28.33;;;18.73;;
15230;SDS011;32569;51.762;8.564;2023-03-08T04:17:18;27.77;;;19.13;;
15230;SDS011;32569;51.762;8.564;2023-03-08T04:19:48;28.20;;;18.87;;
15230;SDS011;32569;51.762;8.564;2023-03-08T04:22:15;30.77;;;19.83;;
15230;SDS011;32569;51.762;8.564;2023-03-08T04:24:43;28.90;;;18.13;;
15230;SDS011;32569;51.762;8.564;2023-03-08T04:27:09;27.87;;;18.70;;
15230;SDS011;32569;51.762;8.564;2023-03-08T04:29:36;31.63;;;19.57;;
15230;SDS011;32569;51.762;8.564;2023-03-08T04:32:02;28.33;;;18.83;;
15230;SDS011;32569;51.762;8.564;2023-03-08T04:34:30;29.70;;;17.97;;
15230;SDS011;32569;51.762;8.564;2023-03-08T04:36:56;30.37;;;18.93;;
15230;SDS011;32569;51.762;8.564;2023-03-08T04:39:23;29.93;;;18.37;;
15230;SDS011;32569;51.762;8.564;2023-03-08T04:41:51;29.97;;;18.97;;
15230;SDS011;32569;51.762;8.564;2023-03-08T04:44:17;28.37;;;18.00;;
15230;SDS011;32569;51.762;8.564;2023-03-08T04:46:44;29.43;;;18.27;;
15230;SDS011;32569;51.762;8.564;2023-03-08T04:49:10;29.83;;;18.40;;
15230;SDS011;32569;51.762;8.564;2023-03-08T04:51:37;30.10;;;18.70;;
15230;SDS011;32569;51.762;8.564;2023-03-08T04:54:04;29.57;;;18.33;;
15230;SDS011;32569;51.762;8.564;2023-03-08T04:56:31;30.90;;;19.37;;
15230;SDS011;32569;51.762;8.564;2023-03-08T04:58:59;28.03;;;18.43;;
15230;SDS011;32569;51.762;8.564;2023-03-08T05:01:25;31.77;;;19.40;;
15230;SDS011;32569;51.762;8.564;2023-03-08T05:03:52;29.83;;;19.13;;
15230;SDS011;32569;51.762;8.564;2023-03-08T05:06:23;30.37;;;19.50;;
15230;SDS011;32569;51.762;8.564;2023-03-08T05:08:50;30.40;;;19.57;;
15230;SDS011;32569;51.762;8.564;2023-03-08T05:11:18;33.37;;;19.73;;
15230;SDS011;32569;51.762;8.564;2023-03-08T05:13:46;29.97;;;19.63;;
15230;SDS011;32569;51.762;8.564;2023-03-08T05:16:14;31.27;;;19.17;;
15230;SDS011;32569;51.762;8.564;2023-03-08T05:18:42;30.03;;;18.47;;
15230;SDS011;32569;51.762;8.564;2023-03-08T05:21:09;29.53;;;19.33;;
15230;SDS011;32569;51.762;8.564;2023-03-08T05:23:37;37.13;;;20.87;;
15230;SDS011;32569;51.762;8.564;2023-03-08T05:26:05;29.23;;;18.93;;
15230;SDS011;32569;51.762;8.564;2023-03-08T05:28:33;32.70;;;19.97;;
15230;SDS011;32569;51.762;8.564;2023-03-08T05:31:02;31.07;;;19.67;;
15230;SDS011;32569;51.762;8.564;2023-03-08T05:33:31;28.57;;;19.43;;
15230;SDS011;32569;51.762;8.564;2023-03-08T05:35:58;29.73;;;20.20;;
15230;SDS011;32569;51.762;8.564;2023-03-08T05:38:25;33.40;;;19.20;;
15230;SDS011;32569;51.762;8.564;2023-03-08T05:40:52;31.67;;;19.60;;
15230;SDS011;32569;51.762;8.564;2023-03-08T05:43:19;33.47;;;20.67;;
15230;SDS011;32569;51.762;8.564;2023-03-08T05:45:53;31.57;;;21.03;;
15230;SDS011;32569;51.762;8.564;2023-03-08T05:48:21;31.70;;;20.23;;
15230;SDS011;32569;51.762;8.564;2023-03-08T05:50:50;32.63;;;19.90;;
15230;SDS011;32569;51.762;8.564;2023-03-08T05:53:17;33.53;;;19.70;;
15230;SDS011;32569;51.762;8.564;2023-03-08T05:55:43;34.10;;;20.30;;
15230;SDS011;32569;51.762;8.564;2023-03-08T05:58:10;34.50;;;20.33;;
15230;SDS011;32569;51.762;8.564;2023-03-08T06:00:36;32.07;;;21.13;;
15230;SDS011;32569;51.762;8.564;2023-03-08T06:03:03;37.00;;;19.60;;
15230;SDS011;32569;51.762;8.564;2023-03-08T06:05:30;33.37;;;20.83;;
15230;SDS011;32569;51.762;8.564;2023-03-08T06:07:58;28.03;;;18.17;;
15230;SDS011;32569;51.762;8.564;2023-03-08T06:10:25;29.67;;;20.50;;
15230;SDS011;32569;51.762;8.564;2023-03-08T06:12:52;31.07;;;20.07;;
15230;SDS011;32569;51.762;8.564;2023-03-08T06:15:18;32.73;;;20.83;;
15230;SDS011;32569;51.762;8.564;2023-03-08T06:17:45;32.30;;;20.17;;
15230;SDS011;32569;51.762;8.564;2023-03-08T06:20:11;31.87;;;20.43;;
15230;SDS011;32569;51.762;8.564;2023-03-08T06:22:43;33.27;;;20.43;;
15230;SDS011;32569;51.762;8.564;2023-03-08T06:25:17;31.83;;;21.60;;
15230;SDS011;32569;51.762;8.564;2023-03-08T06:27:43;31.93;;;19.73;;
15230;SDS011;32569;51.762;8.564;2023-03-08T06:30:10;28.87;;;17.83;;
15230;SDS011;32569;51.762;8.564;2023-03-08T06:32:37;29.13;;;18.70;;
15230;SDS011;32569;51.762;8.564;2023-03-08T06:35:04;29.53;;;19.60;;
15230;SDS011;32569;51.762;8.564;2023-03-08T06:37:32;36.23;;;20.80;;
15230;SDS011;32569;51.762;8.564;2023-03-08T06:39:59;29.77;;;19.73;;
15230;SDS011;32569;51.762;8.564;2023-03-08T06:42:27;30.90;;;19.10;;
15230;SDS011;32569;51.762;8.564;2023-03-08T06:44:53;28.73;;;19.10;;
15230;SDS011;32569;51.762;8.564;2023-03-08T06:47:20;29.97;;;18.70;;
15230;SDS011;32569;51.762;8.564;2023-03-08T06:49:46;33.37;;;19.83;;
15230;SDS011;32569;51.762;8.564;2023-03-08T06:52:13;26.97;;;18.53;;
15230;SDS011;32569;51.762;8.564;2023-03-08T06:54:40;26.17;;;18.00;;
15230;SDS011;32569;51.762;8.564;2023-03-08T06:57:06;29.07;;;19.63;;
15230;SDS011;32569;51.762;8.564;2023-03-08T06:59:34;31.80;;;18.63;;
15230;SDS011;32569;51.762;8.564;2023-03-08T07:02:01;29.10;;;17.13;;
15230;SDS011;32569;51.762;8.564;2023-03-08T07:04:27;30.27;;;17.47;;
15230;SDS011;32569;51.762;8.564;2023-03-08T07:06:54;29.77;;;17.27;;
15230;SDS011;32569;51.762;8.564;2023-03-08T07:09:20;29.63;;;18.20;;
15230;SDS011;32569;51.762;8.564;2023-03-08T07:11:47;23.97;;;16.57;;
15230;SDS011;32569;51.762;8.564;2023-03-08T07:14:14;26.87;;;16.90;;
15230;SDS011;32569;51.762;8.564;2023-03-08T07:16:41;29.13;;;17.60;;
15230;SDS011;32569;51.762;8.564;2023-03-08T07:19:08;25.67;;;18.17;;
15230;SDS011;32569;51.762;8.564;2023-03-08T07:21:35;27.23;;;17.90;;
15230;SDS011;32569;51.762;8.564;2023-03-08T07:24:01;31.03;;;20.27;;
15230;SDS011;32569;51.762;8.564;2023-03-08T07:26:28;27.40;;;18.23;;
15230;SDS011;32569;51.762;8.564;2023-03-08T07:29:07;23.13;;;16.70;;
15230;SDS011;32569;51.762;8.564;2023-03-08T07:31:34;21.63;;;15.53;;
15230;SDS011;32569;51.762;8.564;2023-03-08T07:34:01;20.53;;;15.10;;
15230;SDS011;32569;51.762;8.564;2023-03-08T07:36:27;22.13;;;15.23;;
15230;SDS011;32569;51.762;8.564;2023-03-08T07:38:54;21.00;;;15.33;;
15230;SDS011;32569;51.762;8.564;2023-03-08T07:41:21;20.90;;;14.90;;
15230;SDS011;32569;51.762;8.564;2023-03-08T07:43:47;21.33;;;14.23;;
15230;SDS011;32569;51.762;8.564;2023-03-08T07:46:15;22.63;;;15.47;;
15230;SDS011;32569;51.762;8.564;2023-03-08T07:48:42;20.63;;;14.47;;
15230;SDS011;32569;51.762;8.564;2023-03-08T07:51:09;22.30;;;15.10;;
15230;SDS011;32569;51.762;8.564;2023-03-08T07:53:36;19.27;;;13.53;;
15230;SDS011;32569;51.762;8.564;2023-03-08T07:56:03;19.47;;;13.00;;
15230;SDS011;32569;51.762;8.564;2023-03-08T07:58:31;19.67;;;13.77;;
15230;SDS011;32569;51.762;8.564;2023-03-08T08:00:57;17.93;;;13.27;;
15230;SDS011;32569;51.762;8.564;2023-03-08T08:03:25;19.00;;;13.63;;
15230;SDS011;32569;51.762;8.564;2023-03-08T08:05:53;19.20;;;13.10;;
15230;SDS011;32569;51.762;8.564;2023-03-08T08:08:20;18.47;;;12.73;;
15230;SDS011;32569;51.762;8.564;2023-03-08T08:10:47;17.57;;;12.20;;
15230;SDS011;32569;51.762;8.564;2023-03-08T08:13:13;16.17;;;11.40;;
15230;SDS011;32569;51.762;8.564;2023-03-08T08:15:40;15.20;;;11.87;;
15230;SDS011;32569;51.762;8.564;2023-03-08T08:18:06;16.23;;;12.13;;
15230;SDS011;32569;51.762;8.564;2023-03-08T08:20:34;17.50;;;11.90;;
15230;SDS011;32569;51.762;8.564;2023-03-08T08:23:03;17.63;;;12.47;;
15230;SDS011;32569;51.762;8.564;2023-03-08T08:25:30;18.87;;;13.23;;
15230;SDS011;32569;51.762;8.564;2023-03-08T08:27:57;17.27;;;11.97;;
15230;SDS011;32569;51.762;8.564;2023-03-08T08:30:23;14.97;;;11.57;;
15230;SDS011;32569;51.762;8.564;2023-03-08T08:32:50;16.30;;;10.53;;
15230;SDS011;32569;51.762;8.564;2023-03-08T08:35:17;13.30;;;10.27;;
15230;SDS011;32569;51.762;8.564;2023-03-08T08:37:45;12.30;;;9.97;;
15230;SDS011;32569;51.762;8.564;2023-03-08T08:40:11;15.10;;;10.57;;
15230;SDS011;32569;51.762;8.564;2023-03-08T08:42:38;14.33;;;9.53;;
15230;SDS011;32569;51.762;8.564;2023-03-08T08:45:05;15.27;;;10.53;;
15230;SDS011;32569;51.762;8.564;2023-03-08T08:47:33;12.10;;;9.50;;
15230;SDS011;32569;51.762;8.564;2023-03-08T08:50:00;16.33;;;10.23;;
15230;SDS011;32569;51.762;8.564;2023-03-08T08:52:27;12.70;;;9.10;;
15230;SDS011;32569;51.762;8.564;2023-03-08T08:54:55;11.83;;;9.70;;
15230;SDS011;32569;51.762;8.564;2023-03-08T08:57:21;13.63;;;9.93;;
15230;SDS011;32569;51.762;8.564;2023-03-08T08:59:48;12.83;;;9.20;;
15230;SDS011;32569;51.762;8.564;2023-03-08T09:02:15;12.83;;;8.50;;
15230;SDS011;32569;51.762;8.564;2023-03-08T09:04:41;11.43;;;8.20;;
15230;SDS011;32569;51.762;8.564;2023-03-08T09:07:08;14.53;;;9.80;;
15230;SDS011;32569;51.762;8.564;2023-03-08T09:09:34;13.87;;;9.00;;
15230;SDS011;32569;51.762;8.564;2023-03-08T09:12:02;13.80;;;8.97;;
15230;SDS011;32569;51.762;8.564;2023-03-08T09:14:29;12.97;;;10.03;;
15230;SDS011;32569;51.762;8.564;2023-03-08T09:16:56;12.70;;;9.03;;
15230;SDS011;32569;51.762;8.564;2023-03-08T09:19:23;12.30;;;9.63;;
15230;SDS011;32569;51.762;8.564;2023-03-08T09:21:49;13.93;;;9.80;;
15230;SDS011;32569;51.762;8.564;2023-03-08T09:24:16;12.57;;;9.73;;
15230;SDS011;32569;51.762;8.564;2023-03-08T09:26:42;14.70;;;11.13;;
15230;SDS011;32569;51.762;8.564;2023-03-08T09:29:10;13.33;;;10.03;;
15230;SDS011;32569;51.762;8.564;2023-03-08T09:31:37;12.23;;;9.53;;
15230;SDS011;32569;51.762;8.564;2023-03-08T09:34:04;12.67;;;9.40;;
15230;SDS011;32569;51.762;8.564;2023-03-08T09:36:32;12.20;;;9.00;;
15230;SDS011;32569;51.762;8.564;2023-03-08T09:38:59;11.30;;;8.60;;
15230;SDS011;32569;51.762;8.564;2023-03-08T09:41:33;11.53;;;8.90;;
15230;SDS011;32569;51.762;8.564;2023-03-08T09:44:31;8.33;;;6.50;;
15230;SDS011;32569;51.762;8.564;2023-03-08T09:47:11;8.97;;;7.13;;
15230;SDS011;32569;51.762;8.564;2023-03-08T09:49:42;8.63;;;7.10;;
15230;SDS011;32569;51.762;8.564;2023-03-08T09:52:14;8.70;;;6.30;;
15230;SDS011;32569;51.762;8.564;2023-03-08T09:54:45;8.13;;;5.70;;
15230;SDS011;32569;51.762;8.564;2023-03-08T09:57:13;7.07;;;5.23;;
15230;SDS011;32569;51.762;8.564;2023-03-08T09:59:47;7.27;;;5.47;;
15230;SDS011;32569;51.762;8.564;2023-03-08T10:02:19;5.50;;;4.90;;
15230;SDS011;32569;51.762;8.564;2023-03-08T10:04:55;7.07;;;5.53;;
15230;SDS011;32569;51.762;8.564;2023-03-08T10:07:31;8.57;;;5.70;;
15230;SDS011;32569;51.762;8.564;2023-03-08T10:10:08;5.27;;;4.77;;
15230;SDS011;32569;51.762;8.564;2023-03-08T10:12:49;6.60;;;5.20;;
15230;SDS011;32569;51.762;8.564;2023-03-08T10:15:24;7.97;;;5.93;;
15230;SDS011;32569;51.762;8.564;2023-03-08T10:17:54;7.47;;;5.87;;
15230;SDS011;32569;51.762;8.564;2023-03-08T10:20:25;7.43;;;6.10;;
15230;SDS011;32569;51.762;8.564;2023-03-08T10:22:55;8.70;;;6.30;;
15230;SDS011;32569;51.762;8.564;2023-03-08T10:25:24;9.10;;;6.60;;
15230;SDS011;32569;51.762;8.564;2023-03-08T10:27:53;9.07;;;6.50;;
15230;SDS011;32569;51.762;8.564;2023-03-08T10:30:23;9.53;;;7.00;;
15230;SDS011;32569;51.762;8.564;2023-03-08T10:32:54;10.37;;;6.60;;
15230;SDS011;32569;51.762;8.564;2023-03-08T10:35:31;6.73;;;5.13;;
15230;SDS011;32569;51.762;8.564;2023-03-08T10:38:00;5.00;;;4.50;;
15230;SDS011;32569;51.762;8.564;2023-03-08T10:40:27;4.67;;;3.90;;
15230;SDS011;32569;51.762;8.564;2023-03-08T10:42:54;5.93;;;4.97;;
15230;SDS011;32569;51.762;8.564;2023-03-08T10:45:27;6.20;;;4.40;;
15230;SDS011;32569;51.762;8.564;2023-03-08T10:47:55;7.33;;;5.17;;
15230;SDS011;32569;51.762;8.564;2023-03-08T10:50:23;6.93;;;4.93;;
15230;SDS011;32569;51.762;8.564;2023-03-08T10:52:52;6.23;;;4.93;;
15230;SDS011;32569;51.762;8.564;2023-03-08T10:55:20;5.10;;;4.30;;
15230;SDS011;32569;51.762;8.564;2023-03-08T10:57:48;5.57;;;5.03;;
15230;SDS011;32569;51.762;8.564;2023-03-08T11:00:25;5.43;;;4.70;;
15230;SDS011;32569;51.762;8.564;2023-03-08T11:03:00;5.23;;;4.73;;
15230;SDS011;32569;51.762;8.564;2023-03-08T11:05:32;6.67;;;4.80;;
15230;SDS011;32569;51.762;8.564;2023-03-08T11:07:59;5.30;;;4.80;;
15230;SDS011;32569;51.762;8.564;2023-03-08T11:10:26;6.83;;;5.13;;
15230;SDS011;32569;51.762;8.564;2023-03-08T11:13:00;5.97;;;5.37;;
15230;SDS011;32569;51.762;8.564;2023-03-08T11:15:31;5.67;;;5.10;;
15230;SDS011;32569;51.762;8.564;2023-03-08T11:18:05;6.17;;;5.57;;
15230;SDS011;32569;51.762;8.564;2023-03-08T11:20:41;6.23;;;5.63;;
15230;SDS011;32569;51.762;8.564;2023-03-08T11:23:14;6.83;;;5.53;;
15230;SDS011;32569;51.762;8.564;2023-03-08T11:25:45;6.60;;;5.10;;
15230;SDS011;32569;51.762;8.564;2023-03-08T11:28:25;6.00;;;5.40;;
15230;SDS011;32569;51.762;8.564;2023-03-08T11:31:06;6.33;;;5.13;;
15230;SDS011;32569;51.762;8.564;2023-03-08T11:36:42;6.37;;;5.73;;
15230;SDS011;32569;51.762;8.564;2023-03-08T11:39:16;4.87;;;4.37;;
15230;SDS011;32569;51.762;8.564;2023-03-08T11:41:50;5.43;;;4.90;;
15230;SDS011;32569;51.762;8.564;2023-03-08T11:44:30;5.63;;;4.67;;
15230;SDS011;32569;51.762;8.564;2023-03-08T11:47:21;7.17;;;4.97;;
15230;SDS011;32569;51.762;8.564;2023-03-08T11:50:04;4.70;;;4.30;;
15230;SDS011;32569;51.762;8.564;2023-03-08T11:52:39;5.50;;;4.90;;
15230;SDS011;32569;51.762;8.564;2023-03-08T11:55:19;4.40;;;4.00;;
15230;SDS011;32569;51.762;8.564;2023-03-08T11:57:58;5.60;;;5.00;;
15230;SDS011;32569;51.762;8.564;2023-03-08T12:00:29;5.00;;;4.60;;
15230;SDS011;32569;51.762;8.564;2023-03-08T12:03:02;6.30;;;4.93;;
15230;SDS011;32569;51.762;8.564;2023-03-08T12:05:37;5.37;;;4.87;;
15230;SDS011;32569;51.762;8.564;2023-03-08T12:08:11;6.50;;;5.40;;
15230;SDS011;32569;51.762;8.564;2023-03-08T12:10:41;5.53;;;4.93;;
15230;SDS011;32569;51.762;8.564;2023-03-08T12:13:14;5.50;;;4.97;;
15230;SDS011;32569;51.762;8.564;2023-03-08T12:15:46;5.50;;;5.00;;
15230;SDS011;32569;51.762;8.564;2023-03-08T12:18:20;4.37;;;3.97;;
15230;SDS011;32569;51.762;8.564;2023-03-08T12:20:53;4.93;;;4.37;;
15230;SDS011;32569;51.762;8.564;2023-03-08T12:23:27;4.90;;;4.40;;
15230;SDS011;32569;51.762;8.564;2023-03-08T12:26:02;4.00;;;3.60;;
15230;SDS011;32569;51.762;8.564;2023-03-08T12:28:32;4.00;;;3.60;;
15230;SDS011;32569;51.762;8.564;2023-03-08T12:31:07;3.83;;;3.27;;
15230;SDS011;32569;51.762;8.564;2023-03-08T12:33:45;4.33;;;3.93;;
15230;SDS011;32569;51.762;8.564;2023-03-08T12:36:12;4.33;;;3.93;;
15230;SDS011;32569;51.762;8.564;2023-03-08T12:38:39;5.23;;;4.20;;
15230;SDS011;32569;51.762;8.564;2023-03-08T12:41:19;5.07;;;4.57;;
15230;SDS011;32569;51.762;8.564;2023-03-08T12:43:57;4.93;;;4.40;;
15230;SDS011;32569;51.762;8.564;2023-03-08T12:46:25;4.53;;;4.13;;
15230;SDS011;32569;51.762;8.564;2023-03-08T12:48:53;4.80;;;4.40;;
15230;SDS011;32569;51.762;8.564;2023-03-08T12:51:21;5.80;;;4.53;;
15230;SDS011;32569;51.762;8.564;2023-03-08T12:53:57;6.63;;;5.03;;
15230;SDS011;32569;51.762;8.564;2023-03-08T12:56:27;5.13;;;4.63;;
15230;SDS011;32569;51.762;8.564;2023-03-08T12:58:56;5.33;;;4.67;;
15230;SDS011;32569;51.762;8.564;2023-03-08T13:01:31;5.57;;;5.07;;
15230;SDS011;32569;51.762;8.564;2023-03-08T13:04:02;5.93;;;5.33;;
15230;SDS011;32569;51.762;8.564;2023-03-08T13:09:34;5.67;;;5.07;;
15230;SDS011;32569;51.762;8.564;2023-03-08T13:12:10;5.90;;;5.40;;
15230;SDS011;32569;51.762;8.564;2023-03-08T13:14:46;6.63;;;5.30;;
15230;SDS011;32569;51.762;8.564;2023-03-08T13:17:30;7.63;;;6.30;;
15230;SDS011;32569;51.762;8.564;2023-03-08T13:20:01;6.27;;;5.30;;
15230;SDS011;32569;51.762;8.564;2023-03-08T13:22:35;6.30;;;5.53;;
15230;SDS011;32569;51.762;8.564;2023-03-08T13:25:14;6.97;;;5.57;;
15230;SDS011;32569;51.762;8.564;2023-03-08T13:27:52;7.83;;;6.20;;
15230;SDS011;32569;51.762;8.564;2023-03-08T13:30:24;6.30;;;5.70;;
15230;SDS011;32569;51.762;8.564;2023-03-08T13:32:57;8.57;;;6.07;;
15230;SDS011;32569;51.762;8.564;2023-03-08T13:35:26;6.80;;;6.03;;
15230;SDS011;32569;51.762;8.564;2023-03-08T13:37:54;6.83;;;5.80;;
15230;SDS011;32569;51.762;8.564;2023-03-08T13:40:23;6.27;;;5.67;;
15230;SDS011;32569;51.762;8.564;2023-03-08T13:42:54;8.37;;;5.97;;
15230;SDS011;32569;51.762;8.564;2023-03-08T13:45:21;6.80;;;5.80;;
15230;SDS011;32569;51.762;8.564;2023-03-08T13:47:48;7.20;;;6.50;;
15230;SDS011;32569;51.762;8.564;2023-03-08T13:50:17;7.07;;;6.37;;
15230;SDS011;32569;51.762;8.564;2023-03-08T13:52:47;8.07;;;6.37;;
15230;SDS011;32569;51.762;8.564;2023-03-08T13:55:16;7.97;;;6.27;;
15230;SDS011;32569;51.762;8.564;2023-03-08T13:57:47;6.97;;;6.27;;
15230;SDS011;32569;51.762;8.564;2023-03-08T14:00:21;7.13;;;6.43;;
15230;SDS011;32569;51.762;8.564;2023-03-08T14:02:50;6.30;;;5.70;;
15230;SDS011;32569;51.762;8.564;2023-03-08T14:05:17;6.03;;;5.50;;
15230;SDS011;32569;51.762;8.564;2023-03-08T14:07:55;6.20;;;5.60;;
15230;SDS011;32569;51.762;8.564;2023-03-08T14:10:24;5.60;;;4.90;;
15230;SDS011;32569;51.762;8.564;2023-03-08T14:13:01;5.47;;;4.97;;
15230;SDS011;32569;51.762;8.564;2023-03-08T14:15:29;5.50;;;5.00;;
15230;SDS011;32569;51.762;8.564;2023-03-08T14:17:58;5.57;;;5.03;;
15230;SDS011;32569;51.762;8.564;2023-03-08T14:20:26;5.57;;;5.07;;
15230;SDS011;32569;51.762;8.564;2023-03-08T14:22:54;6.30;;;5.70;;
15230;SDS011;32569;51.762;8.564;2023-03-08T14:25:23;6.03;;;5.43;;
15230;SDS011;32569;51.762;8.564;2023-03-08T14:27:52;4.97;;;4.47;;
15230;SDS011;32569;51.762;8.564;2023-03-08T14:30:20;5.37;;;4.87;;
15230;SDS011;32569;51.762;8.564;2023-03-08T14:32:56;5.17;;;4.67;;
15230;SDS011;32569;51.762;8.564;2023-03-08T14:35:28;4.70;;;4.30;;
15230;SDS011;32569;51.762;8.564;2023-03-08T14:37:58;4.77;;;4.37;;
15230;SDS011;32569;51.762;8.564;2023-03-08T14:40:27;5.47;;;4.97;;
15230;SDS011;32569;51.762;8.564;2023-03-08T14:42:56;5.67;;;5.17;;
15230;SDS011;32569;51.762;8.564;2023-03-08T14:45:27;5.00;;;4.50;;
15230;SDS011;32569;51.762;8.564;2023-03-08T14:47:58;5.50;;;5.00;;